Sonoita, Arizona
Current Conditions -  °F | °C
As of 5:56 AM on Friday 28 Nov 2014 (Local Time) from KALK Reporting Station
Clear Clear  
Wind Chill: 50°   Ceiling: Unl
Heat Index: 50°   Visibility: 10mi
Dew Point: 16°   Wind: 0mph
Humidity: 26%   Direction: NA
Pressure: 30.22"   Gusts: NA
Location:  31.68°N, 110.66°W
Report Text: KALK 281256Z AUTO 00000KT 10SM CLR 10/M09 A3022 RMK AO2 SLP175 T01001089 TSNO
Loading
Personal Weather Stations






























Interactive Weather Map New forecast layout! Learn more

10-Day Weather Forecast

Advertisements
Track Severe Weather on mobile